createdAt,value
2019-02-11T00:02:16.776Z,100850.45
2019-02-11T00:04:47.563Z,100844.17
2019-02-11T00:07:17.916Z,100848.06
2019-02-11T00:09:47.211Z,100852.59
2019-02-11T00:12:16.139Z,100861.55
2019-02-11T00:14:46.010Z,100872.97
2019-02-11T00:17:14.167Z,100881.22
2019-02-11T00:19:45.246Z,100891.03
2019-02-11T00:22:17.559Z,100908.36
2019-02-11T00:24:46.409Z,100922.20
2019-02-11T00:27:27.128Z,100916.86
2019-02-11T00:29:57.211Z,100933.77
2019-02-11T00:32:25.262Z,100918.58
2019-02-11T00:34:59.481Z,100929.71
2019-02-11T00:37:28.855Z,100926.81
2019-02-11T00:40:00.493Z,100926.27
2019-02-11T00:42:32.262Z,100933.61
2019-02-11T00:45:03.455Z,100941.80
2019-02-11T00:47:36.860Z,100946.09
2019-02-11T00:50:10.686Z,100946.98
2019-02-11T00:52:39.878Z,100955.52
2019-02-11T00:55:16.004Z,100957.12
2019-02-11T00:57:44.739Z,100965.66
2019-02-11T01:00:13.649Z,100973.78
2019-02-11T01:02:48.730Z,100970.98
2019-02-11T01:05:19.442Z,100975.28
2019-02-11T01:07:50.266Z,100977.65
2019-02-11T01:10:20.356Z,101001.17
2019-02-11T01:12:50.822Z,101001.41
2019-02-11T01:15:20.661Z,100999.06
2019-02-11T01:17:52.430Z,101002.09
2019-02-11T01:20:24.849Z,101012.84
2019-02-11T01:22:54.372Z,101018.42
2019-02-11T01:25:29.842Z,101013.28
2019-02-11T01:28:00.486Z,101026.13
2019-02-11T01:30:29.836Z,101027.63
2019-02-11T01:32:59.912Z,101030.73
2019-02-11T01:35:36.160Z,101037.58
2019-02-11T01:38:06.437Z,101042.59
2019-02-11T01:40:35.331Z,101058.42
2019-02-11T01:43:07.436Z,101053.59
2019-02-11T01:45:41.990Z,101054.67
2019-02-11T01:48:11.770Z,101059.06
2019-02-11T01:50:42.100Z,101061.72
2019-02-11T01:53:13.826Z,101069.63
2019-02-11T01:55:45.284Z,101078.97
2019-02-11T01:58:18.614Z,101089.05
2019-02-11T02:00:51.180Z,101093.31
2019-02-11T02:03:19.526Z,101093.64
2019-02-11T02:05:51.143Z,101099.02
2019-02-11T02:08:20.979Z,101104.72
2019-02-11T02:10:51.522Z,101108.37
2019-02-11T02:13:22.939Z,101106.73
2019-02-11T02:15:51.169Z,101118.23
2019-02-11T02:18:19.735Z,101113.35
2019-02-11T02:20:56.350Z,101115.36
2019-02-11T02:23:26.174Z,101121.62
2019-02-11T02:25:58.724Z,101131.97
2019-02-11T02:28:30.396Z,101131.95
2019-02-11T02:31:04.457Z,101137.02
2019-02-11T02:33:34.214Z,101138.86
2019-02-11T02:36:15.487Z,101136.39
2019-02-11T02:38:45.802Z,101143.88
2019-02-11T02:41:18.587Z,101155.49
2019-02-11T02:44:02.666Z,101148.14
2019-02-11T02:46:29.816Z,101159.67
2019-02-11T02:49:01.780Z,101172.22
2019-02-11T02:51:33.389Z,101171.02
2019-02-11T02:54:05.555Z,101179.55
2019-02-11T02:56:35.225Z,101183.44
2019-02-11T02:59:07.481Z,101180.92
2019-02-11T03:01:38.082Z,101194.19
2019-02-11T03:04:12.176Z,101192.39
2019-02-11T03:06:45.908Z,101194.34
2019-02-11T03:09:14.250Z,101203.20
2019-02-11T03:11:43.006Z,101216.23
2019-02-11T03:14:14.362Z,101213.13
2019-02-11T03:16:45.611Z,101218.02
2019-02-11T03:19:14.011Z,101219.94
2019-02-11T03:21:46.612Z,101222.08
2019-02-11T03:24:14.870Z,101225.38
2019-02-11T03:26:44.874Z,101228.14
2019-02-11T03:29:13.228Z,101185.02
2019-02-11T03:31:44.100Z,101226.52
2019-02-11T03:34:15.276Z,101229.56
2019-02-11T03:36:49.659Z,101237.63
2019-02-11T03:39:20.055Z,101234.61
2019-02-11T03:41:55.806Z,101239.69
2019-02-11T03:44:25.001Z,101241.07
2019-02-11T03:46:56.279Z,101249.67
2019-02-11T03:49:24.719Z,101246.80
2019-02-11T03:51:54.787Z,101240.02
2019-02-11T03:54:25.199Z,101245.73
2019-02-11T03:56:56.196Z,101246.38
2019-02-11T03:59:26.914Z,101255.57
2019-02-11T04:01:55.586Z,101259.38
2019-02-11T04:04:31.484Z,101249.12
2019-02-11T04:07:07.948Z,101251.27
2019-02-11T04:09:39.742Z,101253.87
2019-02-11T04:12:10.649Z,101257.36
2019-02-11T04:14:41.787Z,101270.41
2019-02-11T04:17:10.171Z,101276.02
2019-02-11T04:19:42.335Z,101282.79
2019-02-11T04:22:14.737Z,101288.14
2019-02-11T04:24:46.401Z,101309.81
2019-02-11T04:27:16.131Z,101300.35
2019-02-11T04:29:44.349Z,101312.82
2019-02-11T04:32:12.691Z,101316.33
2019-02-11T04:34:43.415Z,101337.70
2019-02-11T04:37:12.771Z,101333.70
2019-02-11T04:39:45.627Z,101340.41
2019-02-11T04:42:15.487Z,101345.80
2019-02-11T04:44:46.950Z,101354.72
2019-02-11T04:47:21.634Z,101195.09
2019-02-11T04:49:49.896Z,101376.02
2019-02-11T04:52:21.830Z,101376.91
2019-02-11T04:54:51.368Z,101384.41
2019-02-11T04:57:22.011Z,101397.47
2019-02-11T04:59:49.961Z,101393.34
2019-02-11T05:02:17.998Z,101396.64
2019-02-11T05:04:48.491Z,101402.03
2019-02-11T05:07:16.720Z,101417.38
2019-02-11T05:09:47.988Z,101417.34
2019-02-11T05:12:15.982Z,101420.70
2019-02-11T05:14:48.028Z,101423.52
2019-02-11T05:17:14.015Z,101425.28
2019-02-11T05:19:42.089Z,101432.41
2019-02-11T05:22:12.787Z,101427.43
2019-02-11T05:24:40.790Z,101440.09
2019-02-11T05:27:17.356Z,101445.77
2019-02-11T05:29:47.650Z,101446.61
2019-02-11T05:32:15.707Z,101457.80
2019-02-11T05:34:46.665Z,101465.62
2019-02-11T05:37:16.465Z,101468.03
2019-02-11T05:39:47.116Z,101471.09
2019-02-11T05:42:16.463Z,101479.16
2019-02-11T05:44:53.792Z,101485.89
2019-02-11T05:47:16.441Z,101493.44
2019-02-11T05:49:46.060Z,101500.09
2019-02-11T05:52:14.635Z,101503.00
2019-02-11T05:54:43.464Z,101503.05
2019-02-11T05:57:13.667Z,101507.28
2019-02-11T05:59:41.754Z,101504.61
2019-02-11T06:02:16.427Z,101522.38
2019-02-11T06:04:44.550Z,101521.14
2019-02-11T06:07:12.536Z,101525.13
2019-02-11T06:09:40.550Z,101535.59
2019-02-11T06:12:09.707Z,101532.39
2019-02-11T06:14:37.757Z,101530.08
2019-02-11T06:17:08.262Z,101539.95
2019-02-11T06:19:36.376Z,101548.55
2019-02-11T06:22:04.440Z,101555.06
2019-02-11T06:24:32.823Z,101562.81
2019-02-11T06:27:01.024Z,101574.63
2019-02-11T06:29:28.980Z,101573.67
2019-02-11T06:31:57.431Z,101575.82
2019-02-11T06:34:25.394Z,101577.28
2019-02-11T06:36:58.178Z,101582.20
2019-02-11T06:39:28.650Z,101586.55
2019-02-11T06:41:59.451Z,101587.30
2019-02-11T06:44:27.945Z,101593.92
2019-02-11T06:46:59.386Z,101600.05
2019-02-11T06:49:36.628Z,101608.83
2019-02-11T06:52:05.188Z,101600.17
2019-02-11T06:54:35.033Z,101612.02
2019-02-11T06:57:04.266Z,101609.13
2019-02-11T06:59:37.146Z,101615.44
2019-02-11T07:02:09.096Z,101618.03
2019-02-11T07:04:38.763Z,101621.95
2019-02-11T07:07:09.921Z,101626.10
2019-02-11T07:09:39.279Z,101633.99
2019-02-11T07:12:12.358Z,101639.01
2019-02-11T07:14:41.859Z,101651.66
2019-02-11T07:17:15.886Z,101660.83
2019-02-11T07:19:47.018Z,101672.27
2019-02-11T07:22:17.242Z,101673.55
2019-02-11T07:24:47.278Z,101671.95
2019-02-11T07:27:16.618Z,101681.72
2019-02-11T07:29:45.139Z,101690.66
2019-02-11T07:32:14.255Z,101698.48
2019-02-11T07:34:48.276Z,101713.59
2019-02-11T07:37:19.196Z,101715.08
2019-02-11T07:39:47.388Z,101710.80
2019-02-11T07:42:31.298Z,101714.84
2019-02-11T07:45:03.512Z,101719.67
2019-02-11T07:47:31.763Z,101735.25
2019-02-11T07:50:00.452Z,101737.39
2019-02-11T07:52:32.258Z,101737.54
2019-02-11T07:55:06.151Z,101735.45
2019-02-11T07:57:34.840Z,101742.51
2019-02-11T08:00:05.458Z,101739.49
2019-02-11T08:02:37.633Z,101743.30
2019-02-11T08:05:06.213Z,101740.80
2019-02-11T08:07:40.475Z,101753.14
2019-02-11T08:10:12.619Z,101762.68
2019-02-11T08:12:40.896Z,101765.84
2019-02-11T08:15:09.371Z,101773.05
2019-02-11T08:17:37.468Z,101776.94
2019-02-11T08:20:15.311Z,101784.42
2019-02-11T08:22:43.330Z,101784.09
2019-02-11T08:25:11.956Z,101778.89
2019-02-11T08:27:41.400Z,101790.27
2019-02-11T08:30:13.997Z,101801.13
2019-02-11T08:32:45.108Z,101809.08
2019-02-11T08:35:20.588Z,101813.20
2019-02-11T08:37:50.187Z,101823.83
2019-02-11T08:40:20.489Z,101826.74
2019-02-11T08:42:48.996Z,101834.50
2019-02-11T08:45:17.173Z,101854.68
2019-02-11T08:47:45.223Z,101858.76
2019-02-11T08:50:13.449Z,101857.75
2019-02-11T08:52:41.375Z,101867.59
2019-02-11T08:55:09.222Z,101864.46
2019-02-11T08:57:37.210Z,101887.49
2019-02-11T09:00:05.527Z,101891.93
2019-02-11T09:02:34.228Z,101894.61
2019-02-11T09:05:02.125Z,101901.47
2019-02-11T09:07:29.977Z,101903.79
2019-02-11T09:09:58.017Z,101904.92
2019-02-11T09:12:25.867Z,101907.66
2019-02-11T09:14:53.736Z,101919.31
2019-02-11T09:17:21.699Z,101931.00
2019-02-11T09:19:49.581Z,101925.29
2019-02-11T09:22:17.435Z,101930.42
2019-02-11T09:24:45.387Z,101935.72
2019-02-11T09:27:13.302Z,101943.00
2019-02-11T09:29:41.130Z,101945.50
2019-02-11T09:32:09.063Z,101953.05
2019-02-11T09:34:37.015Z,101962.55
2019-02-11T09:37:05.192Z,101961.87
2019-02-11T09:39:33.246Z,101963.66
2019-02-11T09:42:01.181Z,101967.53
2019-02-11T09:44:29.894Z,101972.75
2019-02-11T09:46:58.278Z,101988.80
2019-02-11T09:49:26.282Z,101999.16
2019-02-11T09:51:54.587Z,102004.52
2019-02-11T09:54:22.684Z,101999.16
2019-02-11T09:56:50.796Z,102012.24
2019-02-11T09:59:18.864Z,102013.80
2019-02-11T10:01:46.873Z,102024.39
2019-02-11T10:04:15.148Z,102030.42
2019-02-11T10:06:43.129Z,102035.42
2019-02-11T10:09:11.235Z,102034.59
2019-02-11T10:11:39.378Z,102045.73
2019-02-11T10:14:07.272Z,102049.44
2019-02-11T10:16:38.032Z,102058.52
2019-02-11T10:19:07.424Z,102060.63
2019-02-11T10:21:36.459Z,102069.58
2019-02-11T10:24:04.636Z,102072.27
2019-02-11T10:26:32.451Z,102078.95
2019-02-11T10:29:00.286Z,102087.93
2019-02-11T10:31:28.207Z,102088.53
2019-02-11T10:33:56.130Z,102098.86
2019-02-11T10:36:24.098Z,102093.39
2019-02-11T10:38:52.006Z,102092.56
2019-02-11T10:41:20.147Z,102092.61
2019-02-11T10:43:48.117Z,102091.98
2019-02-11T10:46:20.944Z,102103.94
2019-02-11T10:48:46.118Z,102105.88
2019-02-11T10:51:14.109Z,102103.97
2019-02-11T10:53:42.129Z,102110.19
2019-02-11T10:56:10.250Z,102119.52
2019-02-11T10:58:38.261Z,102127.42
2019-02-11T11:01:06.268Z,102127.22
2019-02-11T11:03:34.358Z,102136.47
2019-02-11T11:06:02.235Z,102140.08
2019-02-11T11:08:30.194Z,102143.89
2019-02-11T11:10:58.175Z,102143.36
2019-02-11T11:13:26.131Z,102149.36
2019-02-11T11:15:53.959Z,102152.16
2019-02-11T11:18:22.073Z,102159.17
2019-02-11T11:20:50.086Z,102169.06
2019-02-11T11:23:18.054Z,102168.91
2019-02-11T11:25:46.941Z,102168.86
2019-02-11T11:28:15.011Z,102177.56
2019-02-11T11:30:43.016Z,102181.48
2019-02-11T11:33:11.000Z,102193.55
2019-02-11T11:35:38.878Z,102181.38
2019-02-11T11:38:06.828Z,102195.61
2019-02-11T11:40:37.557Z,102201.87
2019-02-11T11:43:05.630Z,102221.86
2019-02-11T11:45:33.767Z,102224.94
2019-02-11T11:48:01.687Z,102228.12
2019-02-11T11:50:29.551Z,102222.65
2019-02-11T11:52:57.992Z,102225.78
2019-02-11T11:55:26.376Z,102241.87
2019-02-11T11:57:54.214Z,102245.52
2019-02-11T12:00:26.651Z,102256.88
2019-02-11T12:03:02.579Z,102264.57
2019-02-11T12:05:24.779Z,102278.81
2019-02-11T12:07:52.740Z,102269.69
2019-02-11T12:10:21.440Z,102273.00
2019-02-11T12:12:49.374Z,102279.97
2019-02-11T12:15:24.833Z,102266.73
2019-02-11T12:18:01.718Z,102271.33
2019-02-11T12:20:33.961Z,102269.38
2019-02-11T12:23:03.824Z,102272.95
2019-02-11T12:25:40.543Z,102290.38
2019-02-11T12:28:11.926Z,102308.29
2019-02-11T12:30:56.007Z,102300.08
2019-02-11T12:33:28.139Z,102300.67
2019-02-11T12:35:58.423Z,102302.02
2019-02-11T12:38:27.112Z,102318.16
2019-02-11T12:40:55.558Z,102311.75
2019-02-11T12:43:24.720Z,102317.89
2019-02-11T12:45:52.995Z,102327.73
2019-02-11T12:48:24.834Z,102334.48
2019-02-11T12:50:53.316Z,102342.35
2019-02-11T12:53:25.368Z,102346.41
2019-02-11T12:55:53.987Z,102347.15
2019-02-11T12:58:22.051Z,102346.92
2019-02-11T13:00:50.124Z,102351.19
2019-02-11T13:03:18.480Z,102351.84
2019-02-11T13:05:46.858Z,102364.48
2019-02-11T13:08:15.583Z,102377.77
2019-02-11T13:10:44.010Z,102387.03
2019-02-11T13:13:13.864Z,102417.73
2019-02-11T13:16:00.187Z,102419.39
2019-02-11T13:18:14.470Z,102405.77
2019-02-11T13:20:42.881Z,102383.97
2019-02-11T13:23:11.027Z,102381.11
2019-02-11T13:25:39.213Z,102394.91
2019-02-11T13:28:13.228Z,102407.81
2019-02-11T13:30:41.496Z,102408.54
2019-02-11T13:33:12.503Z,102399.53
2019-02-11T13:35:40.650Z,102408.94
2019-02-11T13:38:11.951Z,102408.27
2019-02-11T13:40:40.240Z,102408.21
2019-02-11T13:43:08.556Z,102425.73
2019-02-11T13:45:37.496Z,102430.00
2019-02-11T13:48:05.365Z,102436.87
2019-02-11T13:50:33.680Z,102441.47
2019-02-11T13:53:01.947Z,102449.32
2019-02-11T13:55:31.635Z,102452.50
2019-02-11T13:57:59.677Z,102450.31
2019-02-11T14:00:31.449Z,102457.06
2019-02-11T14:03:01.574Z,102474.80
2019-02-11T14:05:30.514Z,102474.01
2019-02-11T14:07:59.979Z,102485.17
2019-02-11T14:10:28.182Z,102490.45
2019-02-11T14:12:55.962Z,102495.36
2019-02-11T14:15:23.890Z,102484.78
2019-02-11T14:18:09.295Z,102488.86
2019-02-11T14:20:25.288Z,102488.34
2019-02-11T14:22:53.270Z,102510.45
2019-02-11T14:25:40.651Z,102516.03
2019-02-11T14:27:51.368Z,102516.83
2019-02-11T14:30:20.159Z,102521.83
2019-02-11T14:32:48.035Z,102514.21
2019-02-11T14:35:16.455Z,102517.34
2019-02-11T14:37:44.248Z,102534.39
2019-02-11T14:40:14.161Z,102542.72
2019-02-11T14:42:42.011Z,102552.02
2019-02-11T14:45:11.243Z,102547.83
2019-02-11T14:47:44.385Z,102566.59
2019-02-11T14:50:12.771Z,102549.69
2019-02-11T14:52:40.545Z,102556.22
2019-02-11T14:55:09.974Z,102560.64
2019-02-11T14:57:37.767Z,102566.97
2019-02-11T15:00:11.749Z,102586.11
2019-02-11T15:02:39.598Z,102592.54
2019-02-11T15:05:08.080Z,102603.65
2019-02-11T15:07:35.901Z,102617.49
2019-02-11T15:10:04.649Z,102631.67
2019-02-11T15:12:34.229Z,102641.05
2019-02-11T15:15:02.296Z,102644.92
2019-02-11T15:17:30.129Z,102658.34
2019-02-11T15:19:57.956Z,102667.42
2019-02-11T15:22:25.925Z,102679.61
2019-02-11T15:24:53.721Z,102678.46
2019-02-11T15:27:21.702Z,102687.95
2019-02-11T15:29:49.652Z,102693.03
2019-02-11T15:32:17.608Z,102700.43
2019-02-11T15:34:45.451Z,102697.55
2019-02-11T15:37:13.237Z,102713.28
2019-02-11T15:39:41.250Z,102718.41
2019-02-11T15:42:09.174Z,102727.94
2019-02-11T15:44:37.092Z,102733.61
2019-02-11T15:47:06.263Z,102736.90
2019-02-11T15:49:34.382Z,102743.27
2019-02-11T15:52:02.199Z,102742.41
2019-02-11T15:54:30.189Z,102753.42
2019-02-11T15:56:58.028Z,102754.84
2019-02-11T15:59:25.810Z,102758.78
2019-02-11T16:01:53.805Z,102759.00
2019-02-11T16:04:24.444Z,102767.94
2019-02-11T16:06:52.289Z,102769.37
2019-02-11T16:09:20.191Z,102781.66
2019-02-11T16:11:48.342Z,102787.94
2019-02-11T16:14:16.330Z,102784.11
2019-02-11T16:16:44.305Z,102791.84
2019-02-11T16:19:12.425Z,102799.28
2019-02-11T16:21:40.316Z,102806.71
2019-02-11T16:24:08.227Z,102803.66
2019-02-11T16:26:36.173Z,102807.97
2019-02-11T16:29:04.178Z,102816.23
2019-02-11T16:31:31.990Z,102818.38
2019-02-11T16:33:59.794Z,102823.10
2019-02-11T16:36:27.885Z,102831.38
2019-02-11T16:38:55.891Z,102842.67
2019-02-11T16:41:24.961Z,102842.23
2019-02-11T16:43:52.747Z,102850.52
2019-02-11T16:46:22.215Z,102847.44
2019-02-11T16:48:50.321Z,102849.16
2019-02-11T16:51:18.300Z,102861.35
2019-02-11T16:53:46.089Z,102873.97
2019-02-11T16:56:13.897Z,102868.78
2019-02-11T16:58:42.941Z,102880.96
2019-02-11T17:01:10.936Z,102890.47
2019-02-11T17:03:40.015Z,102900.45
2019-02-11T17:06:07.855Z,102898.75
2019-02-11T17:08:35.666Z,102902.22
2019-02-11T17:11:03.733Z,102897.81
2019-02-11T17:13:31.759Z,102900.02
2019-02-11T17:15:59.677Z,102897.36
2019-02-11T17:18:27.749Z,102905.19
2019-02-11T17:20:55.729Z,102900.02
2019-02-11T17:23:23.564Z,102900.02
2019-02-11T17:25:51.388Z,102906.05
2019-02-11T17:28:19.553Z,102909.54
2019-02-11T17:30:48.105Z,102915.20
2019-02-11T17:33:16.000Z,102903.94
2019-02-11T17:35:44.073Z,102914.76
2019-02-11T17:38:12.058Z,102917.38
2019-02-11T17:40:40.196Z,102926.05
2019-02-11T17:43:08.087Z,102934.73
2019-02-11T17:45:36.182Z,102928.24
2019-02-11T17:48:03.993Z,102944.30
2019-02-11T17:50:31.843Z,102963.80
2019-02-11T17:53:01.777Z,102958.15
2019-02-11T17:55:30.668Z,102943.00
2019-02-11T17:57:58.520Z,102947.77
2019-02-11T18:00:31.743Z,102943.00
2019-02-11T18:02:59.584Z,102960.30
2019-02-11T18:05:27.375Z,102967.25
2019-02-11T18:07:55.508Z,102974.19
2019-02-11T18:10:23.495Z,102994.53
2019-02-11T18:12:51.381Z,102984.13
2019-02-11T18:15:19.327Z,102981.98
2019-02-11T18:17:47.135Z,102980.25
2019-02-11T18:20:14.924Z,102977.66
2019-02-11T18:22:42.841Z,102988.91
2019-02-11T18:25:10.652Z,102989.76
2019-02-11T18:27:38.765Z,102986.28
2019-02-11T18:30:07.629Z,103001.00
2019-02-11T18:32:35.534Z,103011.83
2019-02-11T18:35:05.389Z,103022.19
2019-02-11T18:37:33.438Z,103028.23
2019-02-11T18:40:01.332Z,103036.03
2019-02-11T18:42:29.429Z,103050.68
2019-02-11T18:44:57.363Z,103047.64
2019-02-11T18:47:27.271Z,103046.33
2019-02-11T18:49:55.256Z,103052.83
2019-02-11T18:52:23.337Z,103057.50
2019-02-11T18:54:51.312Z,103063.16
2019-02-11T18:57:19.282Z,103076.98
2019-02-11T18:59:48.145Z,103079.53
2019-02-11T19:02:16.163Z,103079.98
2019-02-11T19:04:45.069Z,103083.87
2019-02-11T19:07:12.960Z,103098.99
2019-02-11T19:09:41.092Z,103093.70
2019-02-11T19:12:08.884Z,103096.25
2019-02-11T19:14:36.686Z,103093.09
2019-02-11T19:17:04.705Z,103108.28
2019-02-11T19:19:32.522Z,103103.91
2019-02-11T19:22:00.377Z,103094.03
2019-02-11T19:24:28.993Z,103105.58
2019-02-11T19:27:00.223Z,103109.59
2019-02-11T19:29:29.622Z,103117.01
2019-02-11T19:31:57.670Z,103125.20
2019-02-11T19:34:25.533Z,103126.05
2019-02-11T19:36:53.383Z,103128.67
2019-02-11T19:39:21.609Z,103128.57
2019-02-11T19:41:51.452Z,103135.03
2019-02-11T19:44:19.519Z,103132.00
2019-02-11T19:46:47.552Z,103137.62
2019-02-11T19:49:15.388Z,103133.27
2019-02-11T19:51:43.291Z,103125.33
2019-02-11T19:54:11.257Z,103129.28
2019-02-11T19:56:39.076Z,103129.69
2019-02-11T19:59:07.114Z,103125.77
2019-02-11T20:01:35.092Z,103139.17
2019-02-11T20:04:07.472Z,103143.53
2019-02-11T20:06:33.256Z,103146.95
2019-02-11T20:09:01.153Z,103155.84
2019-02-11T20:11:29.132Z,103160.16
2019-02-11T20:13:56.975Z,103171.83
2019-02-11T20:16:24.825Z,103174.75
2019-02-11T20:18:52.756Z,103171.70
2019-02-11T20:21:20.610Z,103168.31
2019-02-11T20:23:48.795Z,103163.94
2019-02-11T20:26:17.914Z,103182.50
2019-02-11T20:28:45.833Z,103178.15
2019-02-11T20:31:13.837Z,103180.77
2019-02-11T20:33:41.769Z,103174.67
2019-02-11T20:36:09.796Z,103172.95
2019-02-11T20:38:37.764Z,103179.80
2019-02-11T20:41:05.587Z,103170.17
2019-02-11T20:43:33.477Z,103181.48
2019-02-11T20:46:01.545Z,103184.06
2019-02-11T20:48:29.406Z,103186.62
2019-02-11T20:50:57.426Z,103195.59
2019-02-11T20:53:25.240Z,103196.00
2019-02-11T20:55:54.155Z,103200.36
2019-02-11T20:58:22.063Z,103204.25
2019-02-11T21:00:50.025Z,103202.52
2019-02-11T21:03:17.855Z,103196.41
2019-02-11T21:05:47.458Z,103191.98
2019-02-11T21:08:15.844Z,103192.23
2019-02-11T21:10:43.795Z,103204.71
2019-02-11T21:13:11.745Z,103206.48
2019-02-11T21:15:39.541Z,103208.68
2019-02-11T21:18:07.492Z,103208.68
2019-02-11T21:20:37.377Z,103212.95
2019-02-11T21:23:08.228Z,103201.77
2019-02-11T21:25:36.345Z,103201.27
2019-02-11T21:28:04.259Z,103206.41
2019-02-11T21:30:32.484Z,103205.15
2019-02-11T21:33:00.352Z,103212.91
2019-02-11T21:35:28.162Z,103222.45
2019-02-11T21:37:56.189Z,103232.33
2019-02-11T21:40:23.973Z,103240.41
2019-02-11T21:42:51.956Z,103249.78
2019-02-11T21:45:19.909Z,103245.30
2019-02-11T21:47:47.730Z,103256.05
2019-02-11T21:50:15.582Z,103259.95
2019-02-11T21:52:43.535Z,103267.28
2019-02-11T21:55:12.391Z,103265.62
2019-02-11T21:57:40.248Z,103272.45
2019-02-11T22:00:12.017Z,103275.94
2019-02-11T22:02:40.008Z,103276.84
2019-02-11T22:05:08.253Z,103271.19
2019-02-11T22:07:36.063Z,103278.44
2019-02-11T22:10:05.683Z,103278.02
2019-02-11T22:12:33.447Z,103272.34
2019-02-11T22:15:01.427Z,103273.14
2019-02-11T22:17:29.446Z,103284.70
2019-02-11T22:19:58.227Z,103274.73
2019-02-11T22:22:27.415Z,103278.11
2019-02-11T22:24:56.539Z,103278.83
2019-02-11T22:27:24.490Z,103281.02
2019-02-11T22:29:52.276Z,103282.61
2019-02-11T22:32:20.305Z,103279.63
2019-02-11T22:34:48.275Z,103287.89
2019-02-11T22:37:16.076Z,103282.36
2019-02-11T22:39:44.025Z,103281.94
2019-02-11T22:42:12.917Z,103280.70
2019-02-11T22:44:40.740Z,103291.47
2019-02-11T22:47:08.632Z,103287.12
2019-02-11T22:49:36.436Z,103300.48
2019-02-11T22:52:04.211Z,103305.66
2019-02-11T22:54:32.173Z,103304.70
2019-02-11T22:56:59.988Z,103312.55
2019-02-11T22:59:27.909Z,103324.56
2019-02-11T23:01:55.762Z,103325.35
2019-02-11T23:04:23.753Z,103329.73
2019-02-11T23:06:51.565Z,103324.25
2019-02-11T23:09:19.676Z,103336.33
2019-02-11T23:11:47.676Z,103345.42
2019-02-11T23:14:15.684Z,103343.80
2019-02-11T23:16:43.472Z,103336.03
2019-02-11T23:19:11.392Z,103340.97
2019-02-11T23:21:39.187Z,103347.50
2019-02-11T23:24:08.283Z,103344.84
2019-02-11T23:26:36.230Z,103341.78
2019-02-11T23:29:04.233Z,103341.42
2019-02-11T23:31:32.016Z,103346.98
2019-02-11T23:33:59.772Z,103349.00
2019-02-11T23:36:27.735Z,103361.81
2019-02-11T23:38:55.693Z,103362.60
2019-02-11T23:41:23.491Z,103355.25
2019-02-11T23:43:51.267Z,103371.16
2019-02-11T23:46:19.310Z,103370.69
2019-02-11T23:48:47.079Z,103378.03
2019-02-11T23:51:15.021Z,103373.58
2019-02-11T23:53:42.915Z,103371.86
2019-02-11T23:56:10.716Z,103378.31
2019-02-11T23:58:38.486Z,103387.71
